createdAt,value
2023-04-17T00:02:15.565Z,102548.16
2023-04-17T00:04:43.806Z,102549.06
2023-04-17T00:07:12.244Z,102549.97
2023-04-17T00:09:40.237Z,102542.91
2023-04-17T00:12:09.701Z,102543.03
2023-04-17T00:14:37.844Z,102535.81
2023-04-17T00:17:05.949Z,102553.72
2023-04-17T00:19:33.995Z,102550.19
2023-04-17T00:22:02.090Z,102541.28
2023-04-17T00:24:30.412Z,102542.25
2023-04-17T00:26:58.452Z,102547.59
2023-04-17T00:29:27.807Z,102541.38
2023-04-17T00:31:56.185Z,102545.84
2023-04-17T00:34:24.145Z,102549.38
2023-04-17T00:36:52.179Z,102546.75
2023-04-17T00:39:20.261Z,102538.94
2023-04-17T00:41:48.320Z,102546.84
2023-04-17T00:44:16.269Z,102539.69
2023-04-17T00:46:45.670Z,102544.16
2023-04-17T00:49:14.109Z,102549.50
2023-04-17T00:51:42.197Z,102519.91
2023-04-17T00:54:10.681Z,102547.75
2023-04-17T00:56:39.087Z,102553.97
2023-04-17T00:59:09.342Z,102552.25
2023-04-17T01:01:37.626Z,102552.31
2023-04-17T01:04:08.175Z,102561.19
2023-04-17T01:06:36.377Z,102560.31
2023-04-17T01:09:05.066Z,102562.19
2023-04-17T01:11:32.978Z,102557.72
2023-04-17T01:14:01.013Z,102572.03
2023-04-17T01:16:30.789Z,102575.63
2023-04-17T01:18:58.988Z,102580.13
2023-04-17T01:21:28.635Z,102569.63
2023-04-17T01:23:57.892Z,102577.47
2023-04-17T01:26:33.235Z,102572.13
2023-04-17T01:29:01.648Z,102548.91
2023-04-17T01:31:31.336Z,102576.69
2023-04-17T01:34:01.421Z,102576.69
2023-04-17T01:36:29.615Z,102574.06
2023-04-17T01:38:57.620Z,102574.06
2023-04-17T01:41:25.724Z,102567.19
2023-04-17T01:43:55.106Z,102579.41
2023-04-17T01:46:23.193Z,102590.09
2023-04-17T01:48:51.514Z,102584.78
2023-04-17T01:51:19.498Z,102589.25
2023-04-17T01:53:47.500Z,102591.09
2023-04-17T01:56:15.792Z,102588.41
2023-04-17T01:58:43.831Z,102587.53
2023-04-17T02:01:13.344Z,102589.34
2023-04-17T02:03:42.097Z,102584.06
2023-04-17T02:06:10.568Z,102586.78
2023-04-17T02:08:38.726Z,102587.66
2023-04-17T02:11:06.899Z,102580.56
2023-04-17T02:13:34.824Z,102583.31
2023-04-17T02:16:04.309Z,102593.13
2023-04-17T02:18:33.804Z,102584.22
2023-04-17T02:21:01.843Z,102600.25
2023-04-17T02:23:29.979Z,102599.47
2023-04-17T02:25:58.371Z,102565.56
2023-04-17T02:28:26.380Z,102603.94
2023-04-17T02:30:54.580Z,102605.72
2023-04-17T02:33:22.671Z,102599.69
2023-04-17T02:35:52.681Z,102600.44
2023-04-17T02:38:25.891Z,102608.56
2023-04-17T02:40:53.943Z,102603.25
2023-04-17T02:43:22.160Z,102551.81
2023-04-17T02:45:51.321Z,102610.38
2023-04-17T02:48:19.513Z,102604.13
2023-04-17T02:50:47.541Z,102606.88
2023-04-17T02:53:20.579Z,102615.81
2023-04-17T02:55:49.856Z,102615.88
2023-04-17T02:58:21.895Z,102614.13
2023-04-17T03:00:50.195Z,102615.91
2023-04-17T03:03:20.062Z,102615.03
2023-04-17T03:05:48.232Z,102624.00
2023-04-17T03:08:16.197Z,102624.13
2023-04-17T03:10:50.748Z,102629.41
2023-04-17T03:13:18.998Z,102627.69
2023-04-17T03:15:47.490Z,102625.91
2023-04-17T03:18:15.562Z,102626.78
2023-04-17T03:20:43.601Z,102631.25
2023-04-17T03:23:11.727Z,102628.59
2023-04-17T03:25:40.060Z,102627.69
2023-04-17T03:28:10.232Z,102630.47
2023-04-17T03:30:38.212Z,102633.94
2023-04-17T03:33:08.636Z,102629.47
2023-04-17T03:35:37.493Z,102636.59
2023-04-17T03:38:08.435Z,102635.69
2023-04-17T03:40:36.664Z,102640.16
2023-04-17T03:43:05.707Z,102648.19
2023-04-17T03:45:36.067Z,102647.22
2023-04-17T03:48:04.704Z,102639.47
2023-04-17T03:50:34.245Z,102648.34
2023-04-17T03:53:02.342Z,102651.84
2023-04-17T03:55:32.093Z,102665.09
2023-04-17T03:58:01.172Z,102641.44
2023-04-17T04:00:31.714Z,102659.75
2023-04-17T04:03:06.035Z,102660.59
2023-04-17T04:05:40.205Z,102657.06
2023-04-17T04:08:09.889Z,102660.66
2023-04-17T04:10:45.438Z,102660.59
2023-04-17T04:13:17.281Z,102660.59
2023-04-17T04:15:51.533Z,102666.78
2023-04-17T04:18:23.069Z,102652.13
2023-04-17T04:20:51.503Z,102668.56
2023-04-17T04:23:28.127Z,102665.94
2023-04-17T04:25:57.914Z,102677.41
2023-04-17T04:28:33.975Z,102683.63
2023-04-17T04:31:02.796Z,102688.97
2023-04-17T04:33:37.958Z,102694.25
2023-04-17T04:36:06.332Z,102676.88
2023-04-17T04:38:36.208Z,102656.72
2023-04-17T04:41:11.899Z,102704.81
2023-04-17T04:43:42.938Z,102702.91
2023-04-17T04:46:11.635Z,102707.19
2023-04-17T04:48:45.659Z,102700.06
2023-04-17T04:51:13.995Z,102712.19
2023-04-17T04:53:43.222Z,102711.94
2023-04-17T04:56:12.911Z,102719.75
2023-04-17T04:58:41.316Z,102715.13
2023-04-17T05:01:10.819Z,102721.16
2023-04-17T05:03:45.967Z,102717.50
2023-04-17T05:06:21.126Z,102712.84
2023-04-17T05:08:54.172Z,102711.22
2023-04-17T05:11:22.304Z,102725.06
2023-04-17T05:13:50.741Z,102730.31
2023-04-17T05:16:28.840Z,102727.47
2023-04-17T05:18:58.580Z,102731.78
2023-04-17T05:21:41.910Z,102732.53
2023-04-17T05:24:10.137Z,102727.94
2023-04-17T05:26:38.052Z,102734.91
2023-04-17T05:29:07.882Z,102733.84
2023-04-17T05:31:36.548Z,102741.75
2023-04-17T05:34:10.828Z,102739.84
2023-04-17T05:36:38.776Z,102737.88
2023-04-17T05:39:06.858Z,102740.44
2023-04-17T05:41:34.911Z,102743.78
2023-04-17T05:44:03.079Z,102746.34
2023-04-17T05:46:31.072Z,102749.78
2023-04-17T05:48:59.003Z,102747.88
2023-04-17T05:51:29.210Z,102751.22
2023-04-17T05:53:57.335Z,102747.66
2023-04-17T05:56:25.451Z,102750.97
2023-04-17T05:58:54.449Z,102767.81
2023-04-17T06:01:22.895Z,102754.25
2023-04-17T06:03:54.230Z,102763.03
2023-04-17T06:06:27.581Z,102769.19
2023-04-17T06:08:56.936Z,102764.69
2023-04-17T06:11:25.300Z,102767.19
2023-04-17T06:13:54.117Z,102764.47
2023-04-17T06:16:22.555Z,102771.50
2023-04-17T06:18:50.740Z,102767.81
2023-04-17T06:21:18.960Z,102765.91
2023-04-17T06:23:46.996Z,102767.69
2023-04-17T06:26:19.285Z,102764.81
2023-04-17T06:28:48.626Z,102762.88
2023-04-17T06:31:17.608Z,102764.56
2023-04-17T06:33:47.726Z,102765.34
2023-04-17T06:36:16.112Z,102766.16
2023-04-17T06:38:48.605Z,102767.81
2023-04-17T06:41:20.092Z,102770.28
2023-04-17T06:43:48.078Z,102766.78
2023-04-17T06:46:16.351Z,102766.59
2023-04-17T06:48:44.329Z,102763.75
2023-04-17T06:51:12.272Z,102766.31
2023-04-17T06:53:40.341Z,102765.28
2023-04-17T06:56:08.550Z,102779.41
2023-04-17T06:58:43.969Z,102773.88
2023-04-17T07:01:12.510Z,102771.13
2023-04-17T07:03:41.174Z,102768.25
2023-04-17T07:06:09.916Z,102773.41
2023-04-17T07:08:37.798Z,102771.47
2023-04-17T07:11:05.833Z,102767.84
2023-04-17T07:13:33.804Z,102769.38
2023-04-17T07:16:03.969Z,102771.91
2023-04-17T07:18:32.033Z,102784.25
2023-04-17T07:20:59.978Z,102777.00
2023-04-17T07:23:27.931Z,102784.03
2023-04-17T07:25:56.018Z,102786.44
2023-04-17T07:28:24.642Z,102777.28
2023-04-17T07:30:53.024Z,102790.50
2023-04-17T07:33:22.541Z,102787.63
2023-04-17T07:35:50.722Z,102776.88
2023-04-17T07:38:18.575Z,102769.09
2023-04-17T07:40:46.609Z,102797.63
2023-04-17T07:43:14.454Z,102795.59
2023-04-17T07:45:42.394Z,102802.53
2023-04-17T07:48:11.098Z,102807.75
2023-04-17T07:50:40.599Z,102811.22
2023-04-17T07:53:08.575Z,102809.19
2023-04-17T07:55:36.819Z,102810.78
2023-04-17T07:58:04.839Z,102818.63
2023-04-17T08:00:33.366Z,102819.44
2023-04-17T08:03:02.228Z,102818.41
2023-04-17T08:05:30.829Z,102805.78
2023-04-17T08:08:01.263Z,102809.25
2023-04-17T08:10:29.501Z,102816.28
2023-04-17T08:12:57.502Z,102807.44
2023-04-17T08:15:25.638Z,102817.88
2023-04-17T08:17:53.676Z,102823.13
2023-04-17T08:20:22.045Z,102815.75
2023-04-17T08:22:50.167Z,102812.13
2023-04-17T08:25:19.512Z,102822.75
2023-04-17T08:27:47.673Z,102827.25
2023-04-17T08:30:19.175Z,102830.56
2023-04-17T08:32:50.472Z,102829.53
2023-04-17T08:35:18.523Z,102822.28
2023-04-17T08:37:47.513Z,102827.66
2023-04-17T08:40:17.268Z,102834.63
2023-04-17T08:42:49.586Z,102830.84
2023-04-17T08:45:18.536Z,102816.59
2023-04-17T08:47:46.710Z,102834.16
2023-04-17T08:50:16.833Z,102834.88
2023-04-17T08:52:46.491Z,102816.50
2023-04-17T08:55:16.268Z,102824.03
2023-04-17T08:58:01.066Z,102832.75
2023-04-17T09:00:31.196Z,102851.56
2023-04-17T09:03:01.190Z,102838.13
2023-04-17T09:05:33.384Z,102845.34
2023-04-17T09:08:13.214Z,102846.28
2023-04-17T09:10:42.566Z,102828.78
2023-04-17T09:13:14.486Z,102839.22
2023-04-17T09:15:43.599Z,102843.72
2023-04-17T09:18:30.796Z,102847.28
2023-04-17T09:20:59.997Z,102840.13
2023-04-17T09:23:30.827Z,102843.69
2023-04-17T09:26:09.859Z,102847.06
2023-04-17T09:28:40.360Z,102847.94
2023-04-17T09:31:25.528Z,102857.81
2023-04-17T09:33:59.004Z,102834.00
2023-04-17T09:36:30.426Z,102844.34
2023-04-17T09:38:59.503Z,102847.91
2023-04-17T09:41:28.877Z,102844.38
2023-04-17T09:44:01.916Z,102841.66
2023-04-17T09:46:39.018Z,102843.38
2023-04-17T09:49:11.902Z,102855.97
2023-04-17T09:51:40.848Z,102854.19
2023-04-17T09:54:11.931Z,102862.25
2023-04-17T09:56:41.317Z,102860.50
2023-04-17T09:59:11.152Z,102864.06
2023-04-17T10:01:40.815Z,102863.19
2023-04-17T10:04:09.251Z,102855.22
2023-04-17T10:06:37.752Z,102862.31
2023-04-17T10:09:05.983Z,102856.09
2023-04-17T10:11:37.950Z,102863.28
2023-04-17T10:14:13.167Z,102848.19
2023-04-17T10:16:43.546Z,102858.13
2023-04-17T10:19:29.748Z,102841.56
2023-04-17T10:22:29.806Z,102861.03
2023-04-17T10:25:23.560Z,102848.72
2023-04-17T10:27:53.769Z,102853.34
2023-04-17T10:30:24.330Z,102857.00
2023-04-17T10:33:21.996Z,102851.78
2023-04-17T10:35:50.497Z,102864.47
2023-04-17T10:38:32.307Z,102865.44
2023-04-17T10:41:04.092Z,102867.31
2023-04-17T10:43:32.933Z,102868.31
2023-04-17T10:46:09.864Z,102854.97
2023-04-17T10:48:41.604Z,102856.88
2023-04-17T10:51:43.872Z,102865.00
2023-04-17T10:54:15.346Z,102881.25
2023-04-17T10:56:46.089Z,102866.97
2023-04-17T10:59:15.749Z,102857.53
2023-04-17T11:02:00.952Z,102831.47
2023-04-17T11:04:30.758Z,102853.09
2023-04-17T11:06:59.624Z,102871.66
2023-04-17T11:09:29.704Z,102874.44
2023-04-17T11:12:01.427Z,102871.66
2023-04-17T11:14:30.453Z,102887.00
2023-04-17T11:16:59.972Z,102861.22
2023-04-17T11:19:28.142Z,102867.41
2023-04-17T11:21:58.869Z,102870.09
2023-04-17T11:24:28.340Z,102871.97
2023-04-17T11:26:57.808Z,102871.19
2023-04-17T11:29:26.365Z,102873.88
2023-04-17T11:31:56.244Z,102873.88
2023-04-17T11:34:27.076Z,102880.09
2023-04-17T11:36:57.444Z,102881.09
2023-04-17T11:39:26.779Z,102886.47
2023-04-17T11:41:57.003Z,102888.22
2023-04-17T11:44:26.173Z,102895.50
2023-04-17T11:46:55.490Z,102881.09
2023-04-17T11:49:28.620Z,102877.63
2023-04-17T11:52:00.285Z,102885.78
2023-04-17T11:54:29.029Z,102895.63
2023-04-17T11:57:01.744Z,102893.88
2023-04-17T11:59:34.398Z,102901.06
2023-04-17T12:02:03.420Z,102893.16
2023-04-17T12:04:35.008Z,102893.00
2023-04-17T12:07:04.246Z,102893.00
2023-04-17T12:09:32.699Z,102891.13
2023-04-17T12:12:01.300Z,102891.00
2023-04-17T12:14:29.458Z,102899.75
2023-04-17T12:16:57.453Z,102893.47
2023-04-17T12:19:26.852Z,102889.66
2023-04-17T12:21:56.707Z,102899.47
2023-04-17T12:24:25.346Z,102904.91
2023-04-17T12:26:53.768Z,102909.25
2023-04-17T12:29:36.141Z,102879.38
2023-04-17T12:32:04.992Z,102904.78
2023-04-17T12:34:33.046Z,102901.06
2023-04-17T12:37:02.383Z,102890.41
2023-04-17T12:39:30.375Z,102890.19
2023-04-17T12:41:58.303Z,102888.38
2023-04-17T12:44:26.345Z,102883.78
2023-04-17T12:46:54.590Z,102894.47
2023-04-17T12:49:23.742Z,102888.16
2023-04-17T12:51:51.814Z,102904.22
2023-04-17T12:54:21.257Z,102889.91
2023-04-17T12:56:49.472Z,102912.28
2023-04-17T12:59:17.545Z,102897.88
2023-04-17T13:01:45.797Z,102908.56
2023-04-17T13:04:14.281Z,102901.28
2023-04-17T13:06:43.030Z,102896.94
2023-04-17T13:09:11.485Z,102905.56
2023-04-17T13:11:41.249Z,102911.75
2023-04-17T13:14:10.070Z,102904.50
2023-04-17T13:16:38.190Z,102909.78
2023-04-17T13:19:06.291Z,102899.13
2023-04-17T13:21:34.252Z,102906.94
2023-04-17T13:24:02.247Z,102906.00
2023-04-17T13:26:30.709Z,102916.69
2023-04-17T13:29:00.221Z,102900.53
2023-04-17T13:31:28.323Z,102909.72
2023-04-17T13:33:56.382Z,102920.16
2023-04-17T13:36:24.400Z,102925.53
2023-04-17T13:38:52.546Z,102910.28
2023-04-17T13:41:20.946Z,102914.72
2023-04-17T13:43:48.979Z,102913.69
2023-04-17T13:46:18.573Z,102926.13
2023-04-17T13:48:46.671Z,102892.94
2023-04-17T13:51:14.796Z,102923.44
2023-04-17T13:53:42.781Z,102916.38
2023-04-17T13:56:10.852Z,102918.97
2023-04-17T13:58:40.455Z,102926.03
2023-04-17T14:01:08.931Z,102915.22
2023-04-17T14:03:40.067Z,102928.56
2023-04-17T14:06:09.377Z,102920.50
2023-04-17T14:08:37.493Z,102924.03
2023-04-17T14:11:05.670Z,102917.97
2023-04-17T14:13:33.743Z,102928.38
2023-04-17T14:16:01.962Z,102930.91
2023-04-17T14:18:30.058Z,102934.47
2023-04-17T14:20:59.426Z,102940.66
2023-04-17T14:23:27.345Z,102933.56
2023-04-17T14:25:55.376Z,102937.97
2023-04-17T14:28:24.139Z,102946.91
2023-04-17T14:30:52.161Z,102937.91
2023-04-17T14:33:20.137Z,102944.13
2023-04-17T14:35:48.138Z,102944.13
2023-04-17T14:38:17.525Z,102942.25
2023-04-17T14:40:45.851Z,102940.41
2023-04-17T14:43:14.224Z,102952.03
2023-04-17T14:45:42.368Z,102943.97
2023-04-17T14:48:13.639Z,102938.91
2023-04-17T14:50:44.318Z,102944.06
2023-04-17T14:53:12.375Z,102951.03
2023-04-17T14:55:42.114Z,102958.16
2023-04-17T14:58:10.910Z,102955.56
2023-04-17T15:00:39.967Z,102960.06
2023-04-17T15:03:08.285Z,102922.56
2023-04-17T15:05:36.397Z,102956.53
2023-04-17T15:08:04.575Z,102957.41
2023-04-17T15:10:48.020Z,102953.84
2023-04-17T15:13:23.171Z,102953.94
2023-04-17T15:15:51.220Z,102950.38
2023-04-17T15:18:19.238Z,102952.28
2023-04-17T15:20:47.590Z,102955.91
2023-04-17T15:23:15.561Z,102950.53
2023-04-17T15:25:43.558Z,102949.59
2023-04-17T15:28:12.370Z,102954.88
2023-04-17T15:30:41.729Z,102948.47
2023-04-17T15:33:10.446Z,102961.91
2023-04-17T15:35:38.707Z,102955.59
2023-04-17T15:38:07.247Z,102951.09
2023-04-17T15:40:35.266Z,102961.00
2023-04-17T15:43:03.617Z,102963.63
2023-04-17T15:45:31.920Z,102961.78
2023-04-17T15:48:02.114Z,102958.25
2023-04-17T15:50:30.319Z,102940.78
2023-04-17T15:52:58.334Z,102961.88
2023-04-17T15:55:26.336Z,102966.38
2023-04-17T15:57:54.302Z,102973.50
2023-04-17T16:00:22.954Z,102962.00
2023-04-17T16:02:51.978Z,102979.75
2023-04-17T16:05:22.476Z,102978.00
2023-04-17T16:07:50.613Z,102894.47
2023-04-17T16:10:19.051Z,102971.00
2023-04-17T16:12:47.370Z,102986.06
2023-04-17T16:15:17.859Z,102985.19
2023-04-17T16:17:48.495Z,102991.44
2023-04-17T16:20:16.941Z,102994.13
2023-04-17T16:22:46.397Z,102996.72
2023-04-17T16:25:14.481Z,102990.56
2023-04-17T16:27:42.631Z,102996.81
2023-04-17T16:30:11.690Z,102999.50
2023-04-17T16:32:39.649Z,103003.13
2023-04-17T16:35:08.378Z,102999.66
2023-04-17T16:37:36.324Z,103004.94
2023-04-17T16:40:06.662Z,102998.72
2023-04-17T16:42:35.150Z,103009.47
2023-04-17T16:45:03.125Z,103010.41
2023-04-17T16:47:31.507Z,103013.00
2023-04-17T16:49:59.562Z,103017.53
2023-04-17T16:52:27.526Z,103020.13
2023-04-17T16:54:55.460Z,103020.22
2023-04-17T16:57:24.794Z,103029.13
2023-04-17T16:59:52.942Z,103027.41
2023-04-17T17:02:20.943Z,103037.28
2023-04-17T17:04:49.852Z,103025.88
2023-04-17T17:07:17.840Z,103041.00
2023-04-17T17:09:45.824Z,103031.34
2023-04-17T17:12:13.713Z,103047.47
2023-04-17T17:14:43.097Z,103037.72
2023-04-17T17:17:11.169Z,103046.84
2023-04-17T17:19:39.198Z,103046.03
2023-04-17T17:22:07.263Z,103038.13
2023-04-17T17:24:36.165Z,103044.72
2023-04-17T17:27:04.284Z,103044.78
2023-04-17T17:29:32.350Z,103050.38
2023-04-17T17:32:01.583Z,103046.81
2023-04-17T17:34:30.455Z,103047.91
2023-04-17T17:36:58.594Z,103058.06
2023-04-17T17:39:26.592Z,103057.25
2023-04-17T17:41:55.848Z,103061.97
2023-04-17T17:44:24.088Z,103057.59
2023-04-17T17:46:52.007Z,103066.75
2023-04-17T17:49:21.466Z,103059.69
2023-04-17T17:51:49.428Z,103064.38
2023-04-17T17:54:17.401Z,103069.91
2023-04-17T17:56:45.382Z,103072.78
2023-04-17T17:59:13.367Z,103074.75
2023-04-17T18:01:41.456Z,103078.44
2023-04-17T18:04:09.656Z,103076.81
2023-04-17T18:06:40.940Z,103091.25
2023-04-17T18:09:08.926Z,103085.06
2023-04-17T18:11:37.825Z,103091.44
2023-04-17T18:14:06.578Z,103087.97
2023-04-17T18:16:36.181Z,103086.31
2023-04-17T18:19:05.071Z,103094.47
2023-04-17T18:21:33.082Z,103100.84
2023-04-17T18:24:02.787Z,103096.50
2023-04-17T18:26:30.842Z,103102.88
2023-04-17T18:28:58.843Z,103096.78
2023-04-17T18:31:28.268Z,103097.69
2023-04-17T18:33:56.370Z,103088.09
2023-04-17T18:36:24.530Z,103106.88
2023-04-17T18:38:52.539Z,103105.16
2023-04-17T18:41:22.966Z,103100.78
2023-04-17T18:43:51.038Z,103103.63
2023-04-17T18:46:19.250Z,103102.81
2023-04-17T18:48:47.311Z,103114.56
2023-04-17T18:51:15.624Z,103117.31
2023-04-17T18:53:43.721Z,103118.25
2023-04-17T18:56:13.783Z,103102.66
2023-04-17T18:58:43.280Z,103123.72
2023-04-17T19:01:11.408Z,103117.56
2023-04-17T19:03:39.858Z,103096.03
2023-04-17T19:06:07.952Z,103117.75
2023-04-17T19:08:36.116Z,103124.97
2023-04-17T19:11:04.087Z,103135.78
2023-04-17T19:13:32.197Z,103125.97
2023-04-17T19:16:01.547Z,103133.28
2023-04-17T19:18:29.641Z,103129.72
2023-04-17T19:20:57.798Z,103090.41
2023-04-17T19:23:25.796Z,103137.88
2023-04-17T19:25:55.008Z,103126.34
2023-04-17T19:28:23.814Z,103081.66
2023-04-17T19:30:51.926Z,103127.34
2023-04-17T19:33:23.874Z,103131.75
2023-04-17T19:35:52.327Z,103127.34
2023-04-17T19:38:20.248Z,103134.38
2023-04-17T19:41:08.367Z,103133.44
2023-04-17T19:43:36.337Z,103098.56
2023-04-17T19:46:04.486Z,103131.75
2023-04-17T19:48:33.832Z,103137.81
2023-04-17T19:51:04.153Z,103135.06
2023-04-17T19:53:32.466Z,103145.81
2023-04-17T19:56:00.357Z,103140.44
2023-04-17T19:58:28.432Z,103140.38
2023-04-17T20:00:56.434Z,103139.53
2023-04-17T20:03:24.729Z,103124.41
2023-04-17T20:05:54.599Z,103143.00
2023-04-17T20:08:22.769Z,103130.53
2023-04-17T20:10:50.786Z,103115.13
2023-04-17T20:13:18.778Z,103136.75
2023-04-17T20:15:46.820Z,103136.84
2023-04-17T20:18:14.860Z,103143.88
2023-04-17T20:20:42.913Z,103146.56
2023-04-17T20:23:12.275Z,103145.69
2023-04-17T20:25:40.354Z,103143.00
2023-04-17T20:28:08.279Z,103139.63
2023-04-17T20:30:36.400Z,103136.00
2023-04-17T20:33:04.585Z,103140.31
2023-04-17T20:35:32.748Z,103135.88
2023-04-17T20:38:00.621Z,103148.38
2023-04-17T20:40:30.029Z,103136.13
2023-04-17T20:42:58.049Z,103150.19
2023-04-17T20:45:26.060Z,103151.06
2023-04-17T20:47:56.965Z,103159.16
2023-04-17T20:50:25.528Z,103159.16
2023-04-17T20:52:53.541Z,103164.50
2023-04-17T20:55:21.612Z,103160.09
2023-04-17T20:57:50.979Z,103166.34
2023-04-17T21:00:19.338Z,103166.38
2023-04-17T21:02:47.484Z,103170.88
2023-04-17T21:05:15.529Z,103170.88
2023-04-17T21:07:43.561Z,103169.13
2023-04-17T21:10:11.613Z,103162.91
2023-04-17T21:12:39.712Z,103170.06
2023-04-17T21:15:10.636Z,103170.13
2023-04-17T21:17:38.865Z,103164.78
2023-04-17T21:20:07.957Z,103170.19
2023-04-17T21:22:37.076Z,103170.19
2023-04-17T21:25:05.881Z,103179.97
2023-04-17T21:27:33.824Z,103174.66
2023-04-17T21:30:01.783Z,103187.22
2023-04-17T21:32:31.145Z,103181.84
2023-04-17T21:34:59.027Z,103179.19
2023-04-17T21:37:27.086Z,103183.69
2023-04-17T21:39:55.184Z,103178.34
2023-04-17T21:42:25.642Z,103186.47
2023-04-17T21:44:53.660Z,103187.25
2023-04-17T21:47:21.685Z,103186.47
2023-04-17T21:49:51.198Z,103191.91
2023-04-17T21:52:19.197Z,103191.91
2023-04-17T21:54:47.251Z,103183.97
2023-04-17T21:57:15.378Z,103167.59
2023-04-17T21:59:43.372Z,103193.69
2023-04-17T22:02:12.639Z,103198.19
2023-04-17T22:04:40.543Z,103194.00
2023-04-17T22:07:10.128Z,103187.75
2023-04-17T22:09:38.170Z,103194.78
2023-04-17T22:12:12.518Z,103194.09
2023-04-17T22:14:40.704Z,103196.75
2023-04-17T22:17:08.663Z,103202.22
2023-04-17T22:19:36.641Z,103199.59
2023-04-17T22:22:04.737Z,103199.72
2023-04-17T22:24:34.024Z,103198.03
2023-04-17T22:27:02.064Z,103206.09
2023-04-17T22:29:30.021Z,103194.56
2023-04-17T22:31:57.948Z,103200.03
2023-04-17T22:34:26.109Z,103201.03
2023-04-17T22:36:54.054Z,103197.53
2023-04-17T22:39:22.497Z,103205.66
2023-04-17T22:41:51.993Z,103203.00
2023-04-17T22:44:22.552Z,103202.19
2023-04-17T22:46:50.544Z,103205.00
2023-04-17T22:49:19.714Z,103204.19
2023-04-17T22:51:48.212Z,103185.91
2023-04-17T22:54:22.687Z,103206.19
2023-04-17T22:56:52.406Z,103193.78
2023-04-17T22:59:20.325Z,103200.81
2023-04-17T23:01:48.375Z,103205.38
2023-04-17T23:04:16.608Z,103175.78
2023-04-17T23:06:44.615Z,103212.63
2023-04-17T23:09:12.725Z,103201.97
2023-04-17T23:11:41.000Z,103205.59
2023-04-17T23:14:11.312Z,103202.97
2023-04-17T23:16:39.625Z,103214.59
2023-04-17T23:19:07.562Z,103208.44
2023-04-17T23:21:35.586Z,103202.28
2023-04-17T23:24:03.517Z,103210.31
2023-04-17T23:26:31.433Z,103208.53
2023-04-17T23:28:59.455Z,103207.72
2023-04-17T23:31:28.893Z,103205.03
2023-04-17T23:33:57.032Z,103212.28
2023-04-17T23:36:25.154Z,103217.63
2023-04-17T23:38:53.781Z,103216.75
2023-04-17T23:41:21.729Z,103211.44
2023-04-17T23:43:51.332Z,103213.25
2023-04-17T23:46:19.577Z,103217.78
2023-04-17T23:48:48.932Z,103218.63
2023-04-17T23:51:17.016Z,103216.94
2023-04-17T23:53:45.323Z,103211.66
2023-04-17T23:56:13.344Z,103199.56
2023-04-17T23:58:41.286Z,103218.81
